createdAt,value
2019-04-07T00:04:25.511Z,100797.41
2019-04-07T00:07:10.285Z,100797.26
2019-04-07T00:09:55.876Z,100774.55
2019-04-07T00:12:29.270Z,100800.28
2019-04-07T00:15:26.075Z,100772.42
2019-04-07T00:18:10.874Z,100778.77
2019-04-07T00:20:43.783Z,100793.20
2019-04-07T00:23:32.253Z,100771.38
2019-04-07T00:26:16.753Z,100796.42
2019-04-07T00:29:01.669Z,100795.63
2019-04-07T00:31:45.811Z,100792.89
2019-04-07T00:34:29.870Z,100788.02
2019-04-07T00:37:14.154Z,100795.73
2019-04-07T00:39:58.929Z,100768.30
2019-04-07T00:42:46.702Z,100766.44
2019-04-07T00:45:30.699Z,100784.28
2019-04-07T00:48:14.272Z,100765.00
2019-04-07T00:50:59.270Z,100756.86
2019-04-07T00:53:45.405Z,100775.45
2019-04-07T00:56:30.111Z,100779.31
2019-04-07T00:59:15.433Z,100779.91
2019-04-07T01:01:59.504Z,100784.98
2019-04-07T01:04:44.644Z,100783.43
2019-04-07T01:07:28.836Z,100756.88
2019-04-07T01:10:02.168Z,100780.56
2019-04-07T01:12:48.880Z,100758.59
2019-04-07T01:15:21.415Z,100786.45
2019-04-07T01:18:05.715Z,100785.66
2019-04-07T01:20:50.397Z,100788.05
2019-04-07T01:23:34.842Z,100782.84
2019-04-07T01:26:19.603Z,100789.23
2019-04-07T01:29:03.620Z,100793.13
2019-04-07T01:31:47.585Z,100791.87
2019-04-07T01:34:31.532Z,100760.59
2019-04-07T01:37:16.268Z,100770.73
2019-04-07T01:40:00.245Z,100762.16
2019-04-07T01:43:05.326Z,100791.89
2019-04-07T01:46:08.890Z,100771.09
2019-04-07T01:49:27.247Z,100796.10
2019-04-07T01:52:33.832Z,100797.48
2019-04-07T01:58:44.403Z,100797.95
2019-04-07T02:04:51.173Z,100780.02
2019-04-07T02:11:06.104Z,100796.44
2019-04-07T02:14:10.014Z,100790.86
2019-04-07T02:17:13.942Z,100795.59
2019-04-07T02:20:19.131Z,100794.80
2019-04-07T02:29:36.730Z,100772.67
2019-04-07T02:32:52.895Z,100795.55
2019-04-07T02:36:14.489Z,100771.88
2019-04-07T02:38:51.957Z,100792.21
2019-04-07T02:42:02.371Z,100794.13
2019-04-07T02:48:33.744Z,100768.16
2019-04-07T02:51:36.747Z,100790.40
2019-04-07T02:54:40.056Z,100786.85
2019-04-07T02:57:51.753Z,100794.88
2019-04-07T03:00:46.879Z,100791.73
2019-04-07T03:03:50.295Z,100770.66
2019-04-07T03:06:47.680Z,100793.48
2019-04-07T03:09:49.177Z,100770.33
2019-04-07T03:13:05.841Z,100779.08
2019-04-07T03:15:56.743Z,100776.96
2019-04-07T03:22:45.857Z,100776.43
2019-04-07T03:25:55.431Z,100781.05
2019-04-07T03:32:08.073Z,100796.61
2019-04-07T03:35:12.667Z,100773.89
2019-04-07T03:38:20.794Z,100801.17
2019-04-07T03:41:29.798Z,100796.08
2019-04-07T03:44:40.650Z,100799.89
2019-04-07T03:47:30.240Z,100794.02
2019-04-07T03:50:21.822Z,100798.80
2019-04-07T03:53:28.491Z,100796.80
2019-04-07T03:56:34.236Z,100775.73
2019-04-07T03:59:38.312Z,100792.98
2019-04-07T04:02:54.819Z,100789.37
2019-04-07T04:05:51.255Z,100803.55
2019-04-07T04:09:13.889Z,100803.52
2019-04-07T04:12:27.664Z,100802.69
2019-04-07T04:15:33.597Z,100800.17
2019-04-07T04:18:18.518Z,100802.93
2019-04-07T04:21:03.517Z,100808.11
2019-04-07T04:23:48.143Z,100805.27
2019-04-07T04:26:32.208Z,100810.27
2019-04-07T04:29:17.049Z,100779.69
2019-04-07T04:32:03.136Z,100785.87
2019-04-07T04:34:47.909Z,100809.64
2019-04-07T04:37:40.365Z,100787.93
2019-04-07T04:40:18.879Z,100789.22
2019-04-07T04:43:03.082Z,100787.57
2019-04-07T04:45:48.402Z,100813.64
2019-04-07T04:48:38.900Z,100815.81
2019-04-07T04:51:11.790Z,100820.32
2019-04-07T04:54:09.114Z,100794.54
2019-04-07T04:56:41.551Z,100820.16
2019-04-07T04:59:29.829Z,100806.83
2019-04-07T05:02:02.116Z,100826.21
2019-04-07T05:07:30.385Z,100827.74
2019-04-07T05:10:17.092Z,100830.84
2019-04-07T05:13:01.726Z,100836.34
2019-04-07T05:15:46.777Z,100835.73
2019-04-07T05:18:21.110Z,100839.84
2019-04-07T05:21:05.901Z,100836.14
2019-04-07T05:23:50.176Z,100847.24
2019-04-07T05:26:23.936Z,100846.45
2019-04-07T05:29:21.437Z,100821.62
2019-04-07T05:31:54.086Z,100844.84
2019-04-07T05:34:38.772Z,100827.11
2019-04-07T05:37:23.290Z,100829.22
2019-04-07T05:40:07.885Z,100850.00
2019-04-07T05:42:51.672Z,100853.64
2019-04-07T05:45:25.308Z,100860.12
2019-04-07T05:48:23.736Z,100860.00
2019-04-07T05:51:07.777Z,100865.48
2019-04-07T05:53:52.696Z,100838.95
2019-04-07T05:56:39.285Z,100851.78
2019-04-07T05:59:24.090Z,100849.64
2019-04-07T06:02:09.019Z,100864.41
2019-04-07T06:04:53.487Z,100872.20
2019-04-07T06:07:38.240Z,100853.36
2019-04-07T06:10:24.841Z,100874.58
2019-04-07T06:13:11.150Z,100871.14
2019-04-07T06:15:54.068Z,100876.31
2019-04-07T06:18:26.996Z,100872.09
2019-04-07T06:21:25.602Z,100857.81
2019-04-07T06:23:59.830Z,100879.69
2019-04-07T06:26:56.539Z,100881.17
2019-04-07T06:29:41.241Z,100880.13
2019-04-07T06:32:25.796Z,100849.69
2019-04-07T06:35:13.341Z,100854.09
2019-04-07T06:37:58.678Z,100872.84
2019-04-07T06:40:43.692Z,100873.64
2019-04-07T06:43:27.851Z,100849.12
2019-04-07T06:46:35.266Z,100874.02
2019-04-07T06:52:34.684Z,100874.09
2019-04-07T06:55:48.631Z,100868.40
2019-04-07T06:58:41.750Z,100874.28
2019-04-07T07:01:59.370Z,100851.33
2019-04-07T07:05:02.997Z,100850.73
2019-04-07T07:08:08.498Z,100850.61
2019-04-07T07:11:23.158Z,100872.03
2019-04-07T07:14:04.770Z,100873.48
2019-04-07T07:17:00.396Z,100877.20
2019-04-07T07:20:16.705Z,100858.87
2019-04-07T07:23:07.495Z,100864.95
2019-04-07T07:26:04.259Z,100852.66
2019-04-07T07:28:52.065Z,100863.14
2019-04-07T07:31:39.200Z,100870.85
2019-04-07T07:34:39.823Z,100869.78
2019-04-07T07:37:24.848Z,100894.27
2019-04-07T07:40:09.937Z,100893.63
2019-04-07T07:42:57.428Z,100891.73
2019-04-07T07:45:44.964Z,100895.63
2019-04-07T07:48:28.264Z,100899.70
2019-04-07T07:51:14.658Z,100895.80
2019-04-07T07:54:00.878Z,100897.45
2019-04-07T07:56:35.757Z,100898.00
2019-04-07T07:59:37.630Z,100903.02
2019-04-07T08:02:19.928Z,100889.88
2019-04-07T08:05:05.564Z,100899.03
2019-04-07T08:07:54.089Z,100905.23
2019-04-07T08:10:38.379Z,100891.36
2019-04-07T08:13:22.373Z,100908.84
2019-04-07T08:16:06.605Z,100907.98
2019-04-07T08:18:51.229Z,100906.22
2019-04-07T08:21:35.554Z,100885.50
2019-04-07T08:24:20.702Z,100884.65
2019-04-07T08:27:06.449Z,100908.14
2019-04-07T08:29:52.614Z,100899.05
2019-04-07T08:32:36.713Z,100887.32
2019-04-07T08:35:22.173Z,100891.59
2019-04-07T08:38:08.763Z,100909.91
2019-04-07T08:40:57.668Z,100907.46
2019-04-07T08:43:57.676Z,100907.70
2019-04-07T08:46:43.192Z,100911.66
2019-04-07T08:49:27.994Z,100888.91
2019-04-07T08:52:12.481Z,100890.74
2019-04-07T08:54:57.957Z,100903.41
2019-04-07T08:57:43.580Z,100888.28
2019-04-07T09:03:52.716Z,100906.22
2019-04-07T09:06:38.519Z,100892.42
2019-04-07T09:09:32.629Z,100886.42
2019-04-07T09:12:09.228Z,100908.30
2019-04-07T09:14:56.956Z,100903.06
2019-04-07T09:18:03.451Z,100908.03
2019-04-07T09:21:06.908Z,100894.23
2019-04-07T09:24:15.475Z,100887.28
2019-04-07T09:27:15.629Z,100905.10
2019-04-07T09:30:16.375Z,100903.50
2019-04-07T09:33:19.755Z,100884.50
2019-04-07T09:36:23.380Z,100903.27
2019-04-07T09:42:44.773Z,100903.31
2019-04-07T09:45:46.589Z,100910.05
2019-04-07T09:52:05.692Z,100906.02
2019-04-07T09:58:46.983Z,100913.53
2019-04-07T10:01:51.929Z,100891.30
2019-04-07T10:04:57.074Z,100885.14
2019-04-07T10:07:42.344Z,100902.33
2019-04-07T10:11:01.433Z,100884.81
2019-04-07T10:13:53.091Z,100899.86
2019-04-07T10:16:47.223Z,100901.84
2019-04-07T10:20:04.366Z,100902.67
2019-04-07T10:23:08.073Z,100895.56
2019-04-07T10:26:11.302Z,100876.63
2019-04-07T10:29:16.547Z,100889.39
2019-04-07T10:32:23.666Z,100884.28
2019-04-07T10:35:42.795Z,100891.37
2019-04-07T10:38:49.586Z,100884.69
2019-04-07T10:42:06.811Z,100874.31
2019-04-07T10:45:11.935Z,100888.06
2019-04-07T10:48:15.522Z,100873.94
2019-04-07T10:51:19.751Z,100887.34
2019-04-07T10:54:29.487Z,100872.62
2019-04-07T10:57:50.543Z,100872.38
2019-04-07T11:00:52.643Z,100858.20
2019-04-07T11:03:58.074Z,100871.19
2019-04-07T11:06:49.500Z,100867.89
2019-04-07T11:10:09.247Z,100842.91
2019-04-07T11:13:06.144Z,100845.02
2019-04-07T11:16:10.278Z,100866.86
2019-04-07T11:19:17.605Z,100870.93
2019-04-07T11:22:40.492Z,100871.63
2019-04-07T11:25:43.924Z,100849.66
2019-04-07T11:28:24.128Z,100872.95
2019-04-07T11:31:40.479Z,100874.20
2019-04-07T11:41:04.252Z,100856.84
2019-04-07T11:43:44.673Z,100858.82
2019-04-07T11:46:40.523Z,100842.44
2019-04-07T11:49:50.638Z,100843.84
2019-04-07T11:52:55.091Z,100838.85
2019-04-07T11:56:15.207Z,100846.59
2019-04-07T11:59:20.359Z,100858.08
2019-04-07T12:02:11.571Z,100859.70
2019-04-07T12:05:14.773Z,100858.75
2019-04-07T12:08:35.907Z,100840.43
2019-04-07T12:11:27.756Z,100856.94
2019-04-07T12:14:40.161Z,100855.46
2019-04-07T12:17:44.854Z,100856.25
2019-04-07T12:20:49.104Z,100835.04
2019-04-07T12:23:44.410Z,100838.70
2019-04-07T12:27:11.645Z,100843.67
2019-04-07T12:33:25.401Z,100825.02
2019-04-07T12:36:32.172Z,100825.35
2019-04-07T12:39:50.171Z,100816.37
2019-04-07T12:42:58.218Z,100823.45
2019-04-07T12:46:02.400Z,100834.47
2019-04-07T12:48:41.071Z,100835.81
2019-04-07T12:51:44.949Z,100828.86
2019-04-07T12:54:48.251Z,100819.98
2019-04-07T12:57:52.135Z,100845.69
2019-04-07T13:00:59.946Z,100846.25
2019-04-07T13:04:06.696Z,100836.47
2019-04-07T13:07:10.017Z,100827.72
2019-04-07T13:10:03.338Z,100836.48
2019-04-07T13:13:26.904Z,100838.37
2019-04-07T13:16:43.723Z,100820.22
2019-04-07T13:19:58.649Z,100822.01
2019-04-07T13:25:45.114Z,100833.53
2019-04-07T13:29:06.680Z,100825.95
2019-04-07T13:35:21.971Z,100826.27
2019-04-07T13:38:26.498Z,100815.63
2019-04-07T13:41:40.093Z,100797.59
2019-04-07T13:44:38.760Z,100823.41
2019-04-07T13:51:03.211Z,100809.03
2019-04-07T13:54:08.113Z,100818.66
2019-04-07T13:57:00.127Z,100809.84
2019-04-07T14:00:17.271Z,100813.86
2019-04-07T14:03:13.457Z,100800.40
2019-04-07T14:06:16.430Z,100829.05
2019-04-07T14:09:41.676Z,100823.67
2019-04-07T14:13:10.521Z,100807.63
2019-04-07T14:22:28.754Z,100810.91
2019-04-07T14:25:32.009Z,100801.44
2019-04-07T14:28:32.268Z,100811.98
2019-04-07T14:31:36.659Z,100810.70
2019-04-07T14:37:47.355Z,100798.54
2019-04-07T14:46:58.649Z,100809.41
2019-04-07T14:50:02.091Z,100802.25
2019-04-07T14:52:51.155Z,100795.63
2019-04-07T14:55:58.255Z,100789.08
2019-04-07T14:59:01.841Z,100810.69
2019-04-07T15:02:00.051Z,100786.71
2019-04-07T15:08:43.223Z,100812.89
2019-04-07T15:11:47.287Z,100795.81
2019-04-07T15:14:21.268Z,100818.94
2019-04-07T15:17:18.129Z,100800.69
2019-04-07T15:20:03.590Z,100803.38
2019-04-07T15:22:49.722Z,100829.99
2019-04-07T15:25:44.014Z,100812.28
2019-04-07T15:28:31.462Z,100823.80
2019-04-07T15:31:24.855Z,100809.09
2019-04-07T15:34:11.735Z,100802.58
2019-04-07T15:36:55.718Z,100804.42
2019-04-07T15:39:40.244Z,100805.09
2019-04-07T15:42:35.165Z,100823.09
2019-04-07T15:45:12.037Z,100806.45
2019-04-07T15:47:57.888Z,100816.28
2019-04-07T15:50:43.073Z,100827.67
2019-04-07T15:53:28.056Z,100815.90
2019-04-07T15:56:16.157Z,100833.67
2019-04-07T15:59:02.007Z,100833.77
2019-04-07T16:01:46.136Z,100838.07
2019-04-07T16:04:33.076Z,100841.53
2019-04-07T16:07:18.777Z,100842.09
2019-04-07T16:10:02.320Z,100835.05
2019-04-07T16:12:45.145Z,100830.77
2019-04-07T16:15:33.180Z,100810.17
2019-04-07T16:18:17.691Z,100822.31
2019-04-07T16:21:03.662Z,100835.73
2019-04-07T16:23:50.210Z,100837.08
2019-04-07T16:26:35.725Z,100838.02
2019-04-07T16:29:20.059Z,100825.84
2019-04-07T16:32:04.399Z,100821.50
2019-04-07T16:34:50.568Z,100839.30
2019-04-07T16:37:34.807Z,100822.43
2019-04-07T16:40:18.526Z,100825.35
2019-04-07T16:43:12.451Z,100845.31
2019-04-07T16:45:49.443Z,100847.66
2019-04-07T16:48:36.898Z,100828.36
2019-04-07T16:51:21.629Z,100820.80
2019-04-07T16:54:08.656Z,100847.75
2019-04-07T16:57:15.347Z,100845.66
2019-04-07T17:00:01.569Z,100833.97
2019-04-07T17:02:47.808Z,100855.21
2019-04-07T17:05:33.147Z,100834.02
2019-04-07T17:08:19.358Z,100852.08
2019-04-07T17:11:07.019Z,100858.13
2019-04-07T17:13:41.259Z,100854.98
2019-04-07T17:16:35.114Z,100833.09
2019-04-07T17:19:20.043Z,100848.89
2019-04-07T17:22:05.320Z,100849.84
2019-04-07T17:24:49.924Z,100851.31
2019-04-07T17:27:33.699Z,100845.17
2019-04-07T17:30:07.981Z,100874.80
2019-04-07T17:33:05.334Z,100858.13
2019-04-07T17:35:52.229Z,100859.48
2019-04-07T17:41:23.510Z,100864.23
2019-04-07T17:44:27.094Z,100863.60
2019-04-07T17:47:31.436Z,100866.59
2019-04-07T17:50:34.370Z,100868.23
2019-04-07T17:53:24.235Z,100892.19
2019-04-07T17:56:22.226Z,100887.81
2019-04-07T17:59:26.573Z,100872.98
2019-04-07T18:02:31.551Z,100893.48
2019-04-07T18:05:45.679Z,100875.84
2019-04-07T18:12:10.460Z,100887.09
2019-04-07T18:15:21.014Z,100910.38
2019-04-07T18:18:26.043Z,100915.85
2019-04-07T18:21:30.293Z,100903.77
2019-04-07T18:24:21.495Z,100929.94
2019-04-07T18:27:25.341Z,100932.86
2019-04-07T18:30:48.355Z,100931.70
2019-04-07T18:34:06.127Z,100914.20
2019-04-07T18:37:06.097Z,100948.76
2019-04-07T18:40:17.853Z,100953.84
2019-04-07T18:43:22.684Z,100953.75
2019-04-07T18:46:26.811Z,100958.20
2019-04-07T18:49:32.081Z,100960.05
2019-04-07T18:52:36.267Z,100967.75
2019-04-07T18:55:30.109Z,100972.67
2019-04-07T18:58:34.375Z,100969.42
2019-04-07T19:01:39.458Z,100979.17
2019-04-07T19:04:33.085Z,100983.51
2019-04-07T19:11:10.660Z,100971.20
2019-04-07T19:14:12.887Z,100966.98
2019-04-07T19:17:11.249Z,100999.58
2019-04-07T19:20:05.423Z,101000.47
2019-04-07T19:23:12.867Z,101001.92
2019-04-07T19:26:18.302Z,100982.78
2019-04-07T19:29:10.362Z,101008.12
2019-04-07T19:32:14.755Z,101007.10
2019-04-07T19:35:06.253Z,101007.78
2019-04-07T19:38:19.683Z,100992.68
2019-04-07T19:41:21.829Z,101010.59
2019-04-07T19:47:31.277Z,101019.45
2019-04-07T19:50:34.969Z,101000.77
2019-04-07T19:53:30.984Z,100997.86
2019-04-07T19:56:53.433Z,100994.36
2019-04-07T19:59:46.439Z,101015.73
2019-04-07T20:03:07.497Z,101017.54
2019-04-07T20:06:21.965Z,101018.75
2019-04-07T20:09:12.704Z,101004.53
2019-04-07T20:12:32.053Z,101014.78
2019-04-07T20:15:41.569Z,101021.38
2019-04-07T20:18:41.725Z,101010.45
2019-04-07T20:21:59.086Z,101033.61
2019-04-07T20:25:02.540Z,101017.20
2019-04-07T20:28:08.767Z,101017.69
2019-04-07T20:31:05.711Z,101016.57
2019-04-07T20:34:15.172Z,101032.63
2019-04-07T20:37:23.729Z,101004.44
2019-04-07T20:40:42.006Z,101035.45
2019-04-07T20:43:37.172Z,101012.19
2019-04-07T20:46:59.350Z,101012.12
2019-04-07T20:50:02.557Z,101038.31
2019-04-07T20:53:12.464Z,101014.73
2019-04-07T20:56:13.010Z,101033.39
2019-04-07T20:59:14.241Z,101041.82
2019-04-07T21:02:20.885Z,101044.59
2019-04-07T21:05:24.719Z,101035.45
2019-04-07T21:08:47.575Z,101020.08
2019-04-07T21:11:42.590Z,101019.65
2019-04-07T21:14:54.970Z,101037.59
2019-04-07T21:20:58.838Z,101050.66
2019-04-07T21:24:18.939Z,101022.33
2019-04-07T21:27:20.747Z,101047.49
2019-04-07T21:30:27.289Z,101019.13
2019-04-07T21:33:31.064Z,101028.77
2019-04-07T21:37:01.670Z,101022.45
2019-04-07T21:46:22.212Z,101033.02
2019-04-07T21:49:23.881Z,101042.69
2019-04-07T21:52:21.423Z,101062.81
2019-04-07T21:55:34.813Z,101058.11
2019-04-07T21:58:43.967Z,101068.89
2019-04-07T22:01:52.899Z,101068.88
2019-04-07T22:04:58.657Z,101036.98
2019-04-07T22:08:16.984Z,101061.39
2019-04-07T22:11:25.390Z,101058.59
2019-04-07T22:14:20.868Z,101056.92
2019-04-07T22:17:05.356Z,101038.14
2019-04-07T22:19:50.234Z,101038.45
2019-04-07T22:22:35.248Z,101035.41
2019-04-07T22:25:22.710Z,101055.22
2019-04-07T22:28:07.676Z,101053.47
2019-04-07T22:30:52.551Z,101051.30
2019-04-07T22:33:36.896Z,101027.64
2019-04-07T22:36:21.277Z,101031.70
2019-04-07T22:39:07.900Z,101029.74
2019-04-07T22:41:52.527Z,101034.56
2019-04-07T22:44:25.513Z,101065.38
2019-04-07T22:47:12.089Z,101040.34
2019-04-07T22:50:01.248Z,101038.05
2019-04-07T22:52:32.015Z,101056.73
2019-04-07T22:55:29.558Z,101056.64
2019-04-07T22:58:13.883Z,101035.15
2019-04-07T23:00:58.576Z,101034.01
2019-04-07T23:03:42.882Z,101032.25
2019-04-07T23:06:29.557Z,101033.61
2019-04-07T23:09:13.445Z,101045.77
2019-04-07T23:12:00.427Z,101047.42
2019-04-07T23:14:44.209Z,101027.05
2019-04-07T23:17:29.976Z,101045.95
2019-04-07T23:20:15.022Z,101024.53
2019-04-07T23:22:59.119Z,101020.78
2019-04-07T23:25:47.316Z,101024.44
2019-04-07T23:28:32.621Z,101026.52
2019-04-07T23:31:17.246Z,101019.94
2019-04-07T23:34:01.117Z,101038.22
2019-04-07T23:36:45.721Z,101020.69
2019-04-07T23:39:29.743Z,101038.98
2019-04-07T23:42:14.538Z,101041.02
2019-04-07T23:45:00.797Z,101016.82
2019-04-07T23:47:44.877Z,101022.77
2019-04-07T23:50:29.643Z,101038.47
2019-04-07T23:53:34.416Z,101038.31
2019-04-07T23:56:19.797Z,101015.66
2019-04-07T23:59:04.703Z,101038.48
